createdAt,value
2019-01-11T00:01:23.595Z,92.94
2019-01-11T00:03:54.305Z,92.76
2019-01-11T00:06:25.261Z,93.01
2019-01-11T00:08:55.907Z,93.38
2019-01-11T00:11:26.678Z,93.36
2019-01-11T00:13:57.566Z,93.41
2019-01-11T00:16:28.203Z,93.45
2019-01-11T00:18:58.913Z,93.61
2019-01-11T00:21:29.496Z,93.41
2019-01-11T00:24:00.199Z,93.54
2019-01-11T00:26:34.186Z,93.65
2019-01-11T00:29:05.215Z,93.47
2019-01-11T00:31:37.413Z,93.59
2019-01-11T00:34:08.000Z,93.65
2019-01-11T00:36:41.552Z,93.51
2019-01-11T00:39:12.174Z,93.65
2019-01-11T00:41:42.864Z,93.85
2019-01-11T00:44:13.429Z,93.96
2019-01-11T00:46:44.137Z,93.94
2019-01-11T00:49:14.735Z,93.81
2019-01-11T00:51:45.239Z,93.81
2019-01-11T00:54:15.859Z,93.96
2019-01-11T00:56:46.419Z,94.04
2019-01-11T00:59:17.252Z,93.90
2019-01-11T01:01:47.894Z,93.90
2019-01-11T01:04:18.456Z,93.94
2019-01-11T01:06:49.060Z,93.74
2019-01-11T01:09:19.682Z,93.87
2019-01-11T01:11:50.738Z,94.16
2019-01-11T01:14:21.521Z,94.16
2019-01-11T01:16:52.101Z,94.10
2019-01-11T01:19:25.596Z,94.11
2019-01-11T01:21:57.675Z,94.32
2019-01-11T01:24:28.311Z,94.35
2019-01-11T01:26:58.889Z,94.37
2019-01-11T01:29:29.545Z,94.37
2019-01-11T01:32:00.715Z,93.95
2019-01-11T01:34:31.290Z,93.77
2019-01-11T01:37:01.902Z,93.85
2019-01-11T01:39:32.463Z,94.05
2019-01-11T01:42:03.071Z,94.06
2019-01-11T01:44:33.627Z,94.02
2019-01-11T01:47:04.167Z,94.06
2019-01-11T01:49:34.730Z,94.08
2019-01-11T01:52:05.558Z,94.09
2019-01-11T01:54:36.250Z,94.01
2019-01-11T01:57:06.814Z,94.02
2019-01-11T01:59:37.339Z,94.13
2019-01-11T02:02:08.197Z,93.94
2019-01-11T02:04:38.803Z,93.76
2019-01-11T02:07:09.572Z,93.57
2019-01-11T02:09:40.102Z,93.56
2019-01-11T02:12:10.620Z,93.23
2019-01-11T02:14:42.332Z,92.86
2019-01-11T02:17:13.941Z,92.38
2019-01-11T02:19:44.557Z,92.13
2019-01-11T02:22:15.400Z,92.14
2019-01-11T02:24:46.021Z,92.09
2019-01-11T02:27:16.619Z,92.23
2019-01-11T02:29:47.198Z,92.34
2019-01-11T02:32:17.803Z,92.59
2019-01-11T02:34:49.396Z,92.89
2019-01-11T02:37:22.697Z,93.08
2019-01-11T02:39:53.435Z,93.29
2019-01-11T02:42:24.050Z,93.45
2019-01-11T02:44:54.679Z,93.57
2019-01-11T02:47:25.223Z,93.71
2019-01-11T02:49:55.775Z,93.81
2019-01-11T02:52:26.327Z,93.71
2019-01-11T02:54:57.026Z,93.65
2019-01-11T02:57:27.513Z,93.75
2019-01-11T02:59:58.061Z,93.91
2019-01-11T03:02:28.656Z,93.63
2019-01-11T03:04:59.570Z,93.73
2019-01-11T03:07:30.180Z,93.78
2019-01-11T03:10:00.713Z,93.86
2019-01-11T03:12:31.442Z,94.00
2019-01-11T03:15:02.124Z,94.02
2019-01-11T03:17:32.704Z,93.87
2019-01-11T03:20:06.304Z,93.74
2019-01-11T03:22:37.047Z,93.58
2019-01-11T03:25:08.309Z,93.71
2019-01-11T03:27:38.980Z,93.85
2019-01-11T03:30:16.782Z,93.71
2019-01-11T03:32:47.388Z,93.58
2019-01-11T03:35:22.614Z,93.59
2019-01-11T03:37:54.877Z,93.58
2019-01-11T03:40:27.360Z,93.33
2019-01-11T03:42:58.015Z,93.20
2019-01-11T03:45:30.069Z,93.39
2019-01-11T03:48:00.701Z,93.31
2019-01-11T03:50:33.827Z,93.03
2019-01-11T03:53:04.464Z,93.04
2019-01-11T03:55:35.042Z,92.84
2019-01-11T03:58:05.768Z,92.53
2019-01-11T04:00:36.534Z,91.96
2019-01-11T04:03:07.215Z,91.61
2019-01-11T04:05:40.698Z,91.55
2019-01-11T04:08:11.286Z,91.50
2019-01-11T04:10:41.794Z,91.36
2019-01-11T04:13:12.375Z,91.48
2019-01-11T04:15:42.999Z,91.82
2019-01-11T04:18:29.967Z,92.30
2019-01-11T04:21:00.542Z,92.38
2019-01-11T04:23:31.149Z,92.35
2019-01-11T04:26:01.698Z,92.07
2019-01-11T04:28:32.221Z,92.18
2019-01-11T04:31:02.876Z,92.09
2019-01-11T04:33:33.491Z,91.85
2019-01-11T04:36:04.127Z,91.88
2019-01-11T04:38:36.768Z,91.67
2019-01-11T04:41:07.554Z,91.57
2019-01-11T04:43:38.144Z,91.56
2019-01-11T04:46:09.320Z,91.99
2019-01-11T04:48:40.169Z,92.12
2019-01-11T04:51:11.093Z,91.70
2019-01-11T04:53:41.724Z,91.63
2019-01-11T04:56:12.451Z,91.74
2019-01-11T04:58:42.999Z,91.70
2019-01-11T05:01:13.788Z,91.73
2019-01-11T05:03:44.613Z,91.85
2019-01-11T05:06:15.305Z,91.70
2019-01-11T05:08:49.349Z,92.03
2019-01-11T05:11:22.098Z,92.20
2019-01-11T05:13:59.961Z,92.29
2019-01-11T05:16:31.222Z,92.61
2019-01-11T05:19:03.723Z,92.79
2019-01-11T05:21:34.678Z,93.04
2019-01-11T05:24:05.833Z,93.22
2019-01-11T05:26:36.634Z,93.54
2019-01-11T05:29:07.355Z,93.62
2019-01-11T05:31:37.931Z,93.52
2019-01-11T05:34:08.505Z,93.72
2019-01-11T05:36:39.166Z,93.74
2019-01-11T05:39:10.880Z,93.89
2019-01-11T05:41:41.534Z,94.25
2019-01-11T05:44:12.203Z,94.41
2019-01-11T05:46:42.750Z,94.33
2019-01-11T05:49:13.296Z,94.61
2019-01-11T05:51:44.012Z,94.98
2019-01-11T05:54:16.394Z,94.97
2019-01-11T05:56:47.098Z,95.13
2019-01-11T05:59:17.648Z,95.15
2019-01-11T06:01:50.981Z,94.88
2019-01-11T06:04:43.501Z,95.23
2019-01-11T06:07:22.655Z,95.38
2019-01-11T06:09:53.264Z,95.58
2019-01-11T06:12:23.904Z,95.78
2019-01-11T06:14:54.522Z,95.77
2019-01-11T06:17:25.176Z,95.86
2019-01-11T06:19:55.768Z,95.66
2019-01-11T06:22:28.079Z,95.65
2019-01-11T06:24:58.592Z,95.83
2019-01-11T06:27:29.269Z,96.28
2019-01-11T06:29:59.842Z,96.15
2019-01-11T06:32:30.433Z,96.37
2019-01-11T06:35:00.973Z,96.57
2019-01-11T06:37:31.602Z,96.88
2019-01-11T06:40:02.159Z,97.13
2019-01-11T06:42:32.770Z,97.32
2019-01-11T06:45:03.297Z,97.36
2019-01-11T06:47:33.871Z,97.53
2019-01-11T06:50:05.702Z,97.76
2019-01-11T06:52:36.242Z,97.87
2019-01-11T06:55:07.374Z,97.80
2019-01-11T06:57:37.940Z,97.49
2019-01-11T07:00:13.078Z,97.46
2019-01-11T07:02:44.331Z,97.39
2019-01-11T07:05:14.925Z,97.52
2019-01-11T07:07:45.511Z,97.73
2019-01-11T07:10:19.193Z,97.43
2019-01-11T07:12:49.788Z,97.42
2019-01-11T07:15:20.336Z,97.42
2019-01-11T07:17:50.950Z,97.65
2019-01-11T07:20:21.519Z,97.85
2019-01-11T07:22:52.080Z,97.80
2019-01-11T07:25:22.654Z,97.87
2019-01-11T07:28:01.463Z,98.05
2019-01-11T07:30:41.809Z,98.08
2019-01-11T07:33:15.265Z,98.04
2019-01-11T07:35:51.709Z,97.86
2019-01-11T07:38:22.660Z,97.82
2019-01-11T07:40:53.229Z,97.78
2019-01-11T07:43:23.834Z,97.90
2019-01-11T07:45:54.425Z,98.13
2019-01-11T07:48:26.102Z,98.09
2019-01-11T07:50:56.594Z,97.84
2019-01-11T07:53:27.327Z,97.79
2019-01-11T07:55:57.890Z,97.81
2019-01-11T07:58:28.452Z,97.58
2019-01-11T08:00:59.045Z,97.55
2019-01-11T08:03:29.616Z,97.64
2019-01-11T08:06:00.169Z,97.32
2019-01-11T08:08:33.685Z,97.18
2019-01-11T08:11:04.285Z,97.21
2019-01-11T08:13:34.795Z,97.41
2019-01-11T08:16:05.355Z,97.25
2019-01-11T08:18:37.555Z,97.07
2019-01-11T08:21:08.113Z,97.15
2019-01-11T08:23:38.707Z,97.07
2019-01-11T08:26:09.202Z,96.97
2019-01-11T08:28:40.010Z,97.09
2019-01-11T08:31:10.580Z,97.10
2019-01-11T08:33:41.205Z,97.04
2019-01-11T08:36:11.763Z,97.06
2019-01-11T08:38:42.283Z,97.22
2019-01-11T08:41:12.846Z,97.27
2019-01-11T08:43:43.499Z,97.10
2019-01-11T08:46:14.062Z,97.06
2019-01-11T08:48:45.111Z,97.09
2019-01-11T08:51:18.938Z,97.24
2019-01-11T08:53:49.531Z,97.39
2019-01-11T08:56:20.192Z,97.24
2019-01-11T08:58:50.823Z,97.28
2019-01-11T09:01:21.322Z,97.31
2019-01-11T09:03:51.972Z,97.55
2019-01-11T09:06:22.784Z,97.47
2019-01-11T09:08:53.371Z,97.49
2019-01-11T09:11:23.916Z,97.52
2019-01-11T09:13:54.473Z,97.56
2019-01-11T09:16:25.012Z,97.74
2019-01-11T09:18:57.870Z,97.99
2019-01-11T09:21:28.447Z,97.88
2019-01-11T09:23:59.077Z,97.93
2019-01-11T09:26:29.619Z,98.17
2019-01-11T09:29:00.560Z,98.08
2019-01-11T09:31:31.129Z,98.25
2019-01-11T09:34:01.689Z,98.09
2019-01-11T09:36:32.250Z,98.14
2019-01-11T09:39:03.461Z,98.38
2019-01-11T09:41:34.058Z,98.35
2019-01-11T09:44:04.662Z,98.49
2019-01-11T09:46:35.218Z,98.61
2019-01-11T09:49:05.896Z,98.51
2019-01-11T09:51:36.462Z,98.46
2019-01-11T09:54:07.276Z,98.28
2019-01-11T09:56:39.308Z,98.14
2019-01-11T09:59:09.994Z,98.14
2019-01-11T10:01:40.573Z,98.23
2019-01-11T10:04:15.054Z,98.50
2019-01-11T10:06:55.536Z,98.51
2019-01-11T10:09:26.133Z,98.47
2019-01-11T10:11:56.680Z,98.29
2019-01-11T10:14:27.306Z,98.40
2019-01-11T10:16:57.836Z,98.37
2019-01-11T10:19:28.411Z,98.45
2019-01-11T10:21:59.086Z,98.44
2019-01-11T10:24:29.659Z,98.42
2019-01-11T10:27:00.147Z,98.37
2019-01-11T10:29:30.699Z,98.52
2019-01-11T10:32:01.315Z,98.77
2019-01-11T10:34:31.855Z,98.99
2019-01-11T10:37:02.408Z,99.30
2019-01-11T10:39:33.012Z,99.37
2019-01-11T10:42:06.821Z,99.35
2019-01-11T10:44:37.402Z,99.25
2019-01-11T10:47:07.908Z,99.39
2019-01-11T10:49:38.470Z,99.26
2019-01-11T10:52:09.050Z,99.39
2019-01-11T10:54:43.585Z,99.46
2019-01-11T10:57:14.214Z,99.37
2019-01-11T10:59:44.794Z,99.63
2019-01-11T11:02:15.356Z,99.47
2019-01-11T11:04:45.938Z,99.83
2019-01-11T11:07:17.867Z,99.81
2019-01-11T11:09:48.457Z,99.84
2019-01-11T11:12:18.976Z,99.57
2019-01-11T11:14:51.276Z,99.50
2019-01-11T11:17:21.910Z,99.51
2019-01-11T11:19:52.685Z,99.82
2019-01-11T11:22:23.230Z,99.95
2019-01-11T11:24:53.802Z,99.85
2019-01-11T11:27:24.403Z,99.60
2019-01-11T11:29:54.978Z,99.33
2019-01-11T11:32:36.840Z,99.16
2019-01-11T11:35:07.758Z,99.03
2019-01-11T11:37:38.274Z,98.86
2019-01-11T11:40:09.894Z,98.85
2019-01-11T11:42:40.453Z,98.97
2019-01-11T11:45:12.240Z,98.99
2019-01-11T11:47:42.940Z,98.79
2019-01-11T11:50:13.736Z,98.87
2019-01-11T11:52:44.269Z,99.05
2019-01-11T11:55:14.905Z,99.13
2019-01-11T11:57:45.559Z,99.10
2019-01-11T12:00:22.753Z,99.10
2019-01-11T12:02:53.385Z,99.13
2019-01-11T12:05:23.954Z,99.01
2019-01-11T12:07:54.546Z,98.90
2019-01-11T12:10:25.119Z,99.17
2019-01-11T12:12:55.654Z,99.20
2019-01-11T12:15:26.234Z,99.22
2019-01-11T12:17:56.739Z,99.19
2019-01-11T12:20:40.547Z,99.29
2019-01-11T12:23:11.205Z,99.55
2019-01-11T12:25:41.777Z,99.85
2019-01-11T12:28:12.378Z,99.96
2019-01-11T12:30:42.952Z,100.00
2019-01-11T12:33:13.471Z,100.00
2019-01-11T12:35:44.082Z,100.00
2019-01-11T12:38:14.647Z,100.00
2019-01-11T12:40:45.189Z,100.00
2019-01-11T12:43:15.763Z,100.00
2019-01-11T12:45:46.329Z,100.00
2019-01-11T12:48:16.894Z,100.00
2019-01-11T12:50:47.476Z,100.00
2019-01-11T12:53:18.039Z,100.00
2019-01-11T12:55:48.617Z,100.00
2019-01-11T12:58:19.204Z,100.00
2019-01-11T13:00:49.748Z,100.00
2019-01-11T13:03:20.287Z,100.00
2019-01-11T13:05:50.851Z,100.00
2019-01-11T13:08:21.482Z,100.00
2019-01-11T13:10:52.074Z,100.00
2019-01-11T13:13:22.679Z,100.00
2019-01-11T13:15:53.308Z,100.00
2019-01-11T13:18:23.896Z,100.00
2019-01-11T13:20:54.490Z,100.00
2019-01-11T13:23:25.026Z,100.00
2019-01-11T13:25:55.623Z,100.00
2019-01-11T13:28:26.188Z,100.00
2019-01-11T13:30:56.795Z,100.00
2019-01-11T13:33:27.376Z,100.00
2019-01-11T13:35:57.942Z,100.00
2019-01-11T13:38:28.507Z,100.00
2019-01-11T13:40:59.084Z,100.00
2019-01-11T13:43:29.641Z,100.00
2019-01-11T13:46:00.254Z,100.00
2019-01-11T13:48:33.820Z,100.00
2019-01-11T13:51:04.472Z,100.00
2019-01-11T13:53:35.031Z,100.00
2019-01-11T13:56:05.745Z,100.00
2019-01-11T13:58:36.291Z,100.00
2019-01-11T14:01:06.850Z,100.00
2019-01-11T14:03:37.434Z,100.00
2019-01-11T14:06:08.159Z,100.00
2019-01-11T14:08:38.684Z,100.00
2019-01-11T14:11:09.276Z,100.00
2019-01-11T14:13:41.928Z,100.00
2019-01-11T14:16:12.569Z,100.00
2019-01-11T14:18:43.109Z,100.00
2019-01-11T14:21:13.676Z,100.00
2019-01-11T14:23:44.270Z,100.00
2019-01-11T14:26:14.819Z,100.00
2019-01-11T14:28:48.053Z,100.00
2019-01-11T14:31:18.643Z,100.00
2019-01-11T14:33:49.180Z,100.00
2019-01-11T14:36:19.735Z,100.00
2019-01-11T14:38:50.258Z,100.00
2019-01-11T14:41:21.309Z,100.00
2019-01-11T14:43:51.963Z,100.00
2019-01-11T14:46:22.576Z,100.00
2019-01-11T14:48:53.110Z,100.00
2019-01-11T14:51:23.709Z,100.00
2019-01-11T14:53:54.330Z,100.00
2019-01-11T14:56:24.903Z,100.00
2019-01-11T14:58:55.478Z,100.00
2019-01-11T15:01:26.033Z,100.00
2019-01-11T15:03:56.590Z,100.00
2019-01-11T15:06:27.201Z,100.00
2019-01-11T15:08:57.628Z,100.00
2019-01-11T15:11:28.175Z,100.00
2019-01-11T15:13:58.786Z,100.00
2019-01-11T15:16:29.419Z,100.00
2019-01-11T15:19:00.010Z,100.00
2019-01-11T15:21:30.607Z,100.00
2019-01-11T15:24:01.147Z,100.00
2019-01-11T15:26:31.721Z,100.00
2019-01-11T15:29:05.698Z,100.00
2019-01-11T15:31:36.334Z,100.00
2019-01-11T15:34:06.878Z,100.00
2019-01-11T15:36:37.648Z,100.00
2019-01-11T15:39:10.357Z,100.00
2019-01-11T15:41:43.910Z,100.00
2019-01-11T15:44:14.619Z,100.00
2019-01-11T15:46:45.186Z,100.00
2019-01-11T15:49:15.731Z,100.00
2019-01-11T15:51:46.266Z,100.00
2019-01-11T15:54:16.877Z,100.00
2019-01-11T15:56:47.441Z,100.00
2019-01-11T15:59:18.030Z,100.00
2019-01-11T16:01:54.267Z,100.00
2019-01-11T16:04:24.832Z,100.00
2019-01-11T16:06:55.635Z,100.00
2019-01-11T16:10:08.860Z,100.00
2019-01-11T16:12:53.834Z,100.00
2019-01-11T16:16:16.053Z,100.00
2019-01-11T16:18:46.735Z,100.00
2019-01-11T16:21:17.300Z,100.00
2019-01-11T16:23:47.959Z,100.00
2019-01-11T16:26:18.540Z,100.00
2019-01-11T16:28:49.156Z,100.00
2019-01-11T16:31:21.376Z,100.00
2019-01-11T16:33:51.989Z,100.00
2019-01-11T16:36:22.524Z,100.00
2019-01-11T16:38:53.101Z,100.00
2019-01-11T16:41:23.870Z,100.00
2019-01-11T16:43:54.411Z,100.00
2019-01-11T16:46:24.958Z,100.00
2019-01-11T16:48:55.581Z,100.00
2019-01-11T16:51:26.129Z,100.00
2019-01-11T16:53:56.734Z,100.00
2019-01-11T16:56:27.239Z,100.00
2019-01-11T16:58:57.886Z,100.00
2019-01-11T17:01:28.851Z,100.00
2019-01-11T17:03:59.417Z,100.00
2019-01-11T17:06:29.949Z,100.00
2019-01-11T17:09:01.790Z,100.00
2019-01-11T17:11:32.403Z,100.00
2019-01-11T17:14:02.988Z,100.00
2019-01-11T17:16:33.558Z,100.00
2019-01-11T17:19:04.208Z,100.00
2019-01-11T17:21:34.774Z,100.00
2019-01-11T17:24:05.934Z,100.00
2019-01-11T17:26:36.447Z,100.00
2019-01-11T17:29:06.975Z,100.00
2019-01-11T17:31:37.552Z,100.00
2019-01-11T17:34:08.919Z,100.00
2019-01-11T17:36:39.432Z,100.00
2019-01-11T17:39:10.819Z,100.00
2019-01-11T17:41:41.488Z,100.00
2019-01-11T17:44:12.151Z,100.00
2019-01-11T17:46:43.400Z,100.00
2019-01-11T17:49:15.101Z,100.00
2019-01-11T17:51:45.713Z,100.00
2019-01-11T17:54:16.278Z,100.00
2019-01-11T17:56:47.612Z,100.00
2019-01-11T17:59:19.975Z,100.00
2019-01-11T18:01:52.259Z,100.00
2019-01-11T18:04:23.016Z,100.00
2019-01-11T18:06:53.567Z,100.00
2019-01-11T18:09:24.931Z,100.00
2019-01-11T18:11:55.646Z,100.00
2019-01-11T18:14:26.424Z,100.00
2019-01-11T18:16:56.942Z,100.00
2019-01-11T18:19:27.564Z,100.00
2019-01-11T18:21:58.137Z,100.00
2019-01-11T18:24:28.672Z,100.00
2019-01-11T18:27:01.413Z,100.00
2019-01-11T18:29:32.013Z,100.00
2019-01-11T18:32:02.616Z,100.00
2019-01-11T18:34:33.195Z,100.00
2019-01-11T18:37:03.785Z,100.00
2019-01-11T18:39:35.583Z,100.00
2019-01-11T18:42:06.188Z,100.00
2019-01-11T18:44:36.769Z,100.00
2019-01-11T18:47:08.019Z,100.00
2019-01-11T18:49:38.567Z,100.00
2019-01-11T18:52:09.159Z,100.00
2019-01-11T18:54:39.704Z,100.00
2019-01-11T18:57:10.386Z,100.00
2019-01-11T18:59:43.221Z,100.00
2019-01-11T19:02:13.808Z,100.00
2019-01-11T19:04:44.360Z,100.00
2019-01-11T19:07:18.014Z,100.00
2019-01-11T19:09:48.649Z,100.00
2019-01-11T19:12:23.940Z,100.00
2019-01-11T19:14:54.585Z,100.00
2019-01-11T19:17:25.148Z,100.00
2019-01-11T19:19:55.787Z,100.00
2019-01-11T19:22:27.418Z,100.00
2019-01-11T19:24:59.460Z,100.00
2019-01-11T19:27:30.056Z,100.00
2019-01-11T19:30:00.786Z,100.00
2019-01-11T19:32:31.379Z,100.00
2019-01-11T19:35:01.954Z,100.00
2019-01-11T19:37:34.760Z,100.00
2019-01-11T19:40:07.014Z,100.00
2019-01-11T19:42:37.717Z,100.00
2019-01-11T19:45:10.705Z,100.00
2019-01-11T19:47:44.019Z,100.00
2019-01-11T19:50:20.519Z,100.00
2019-01-11T19:52:51.439Z,100.00
2019-01-11T19:55:23.871Z,100.00
2019-01-11T19:57:54.518Z,100.00
2019-01-11T20:00:29.904Z,100.00
2019-01-11T20:03:00.492Z,100.00
2019-01-11T20:05:31.105Z,100.00
2019-01-11T20:08:01.633Z,100.00
2019-01-11T20:10:34.303Z,100.00
2019-01-11T20:13:04.924Z,100.00
2019-01-11T20:15:35.720Z,100.00
2019-01-11T20:18:07.167Z,100.00
2019-01-11T20:20:37.847Z,100.00
2019-01-11T20:23:09.950Z,100.00
2019-01-11T20:25:40.640Z,100.00
2019-01-11T20:28:11.206Z,100.00
2019-01-11T20:30:44.070Z,100.00
2019-01-11T20:33:14.644Z,100.00
2019-01-11T20:35:48.553Z,100.00
2019-01-11T20:38:19.134Z,100.00
2019-01-11T20:40:49.764Z,100.00
2019-01-11T20:43:20.299Z,100.00
2019-01-11T20:45:50.907Z,100.00
2019-01-11T20:48:21.443Z,100.00
2019-01-11T20:50:54.334Z,100.00
2019-01-11T20:53:24.892Z,100.00
2019-01-11T20:55:55.487Z,100.00
2019-01-11T20:58:26.039Z,100.00
2019-01-11T21:00:58.690Z,100.00
2019-01-11T21:03:29.353Z,100.00
2019-01-11T21:05:59.920Z,100.00
2019-01-11T21:08:30.465Z,100.00
2019-01-11T21:11:01.047Z,100.00
2019-01-11T21:13:31.600Z,100.00
2019-01-11T21:16:02.191Z,100.00
2019-01-11T21:18:32.698Z,100.00
2019-01-11T21:21:03.309Z,100.00
2019-01-11T21:23:33.850Z,100.00
2019-01-11T21:26:04.502Z,100.00
2019-01-11T21:28:35.009Z,100.00
2019-01-11T21:31:05.544Z,100.00
2019-01-11T21:33:36.103Z,100.00
2019-01-11T21:36:06.675Z,100.00
2019-01-11T21:38:37.171Z,100.00
2019-01-11T21:41:07.805Z,100.00
2019-01-11T21:43:38.293Z,100.00
2019-01-11T21:46:08.924Z,100.00
2019-01-11T21:48:39.480Z,100.00
2019-01-11T21:51:10.033Z,100.00
2019-01-11T21:53:40.682Z,100.00
2019-01-11T21:56:11.255Z,100.00
2019-01-11T21:58:41.880Z,100.00
2019-01-11T22:01:12.462Z,100.00
2019-01-11T22:03:43.083Z,100.00
2019-01-11T22:06:13.618Z,100.00
2019-01-11T22:08:44.216Z,100.00
2019-01-11T22:11:17.836Z,100.00
2019-01-11T22:13:48.369Z,100.00
2019-01-11T22:16:18.928Z,100.00
2019-01-11T22:18:49.440Z,100.00
2019-01-11T22:21:20.023Z,100.00
2019-01-11T22:23:50.531Z,100.00
2019-01-11T22:26:21.108Z,100.00
2019-01-11T22:28:51.649Z,100.00
2019-01-11T22:31:22.179Z,100.00
2019-01-11T22:33:52.730Z,100.00
2019-01-11T22:36:23.284Z,100.00
2019-01-11T22:38:53.811Z,100.00
2019-01-11T22:41:24.383Z,100.00
2019-01-11T22:43:54.932Z,100.00
2019-01-11T22:46:25.513Z,100.00
2019-01-11T22:48:56.035Z,100.00
2019-01-11T22:51:26.606Z,100.00
2019-01-11T22:53:57.214Z,100.00
2019-01-11T22:56:27.751Z,100.00
2019-01-11T22:58:58.236Z,100.00
2019-01-11T23:02:12.130Z,100.00
2019-01-11T23:04:42.682Z,100.00
2019-01-11T23:08:00.517Z,100.00
2019-01-11T23:11:26.901Z,100.00
2019-01-11T23:13:57.557Z,100.00
2019-01-11T23:17:16.287Z,100.00
2019-01-11T23:19:48.484Z,100.00
2019-01-11T23:22:19.030Z,100.00
2019-01-11T23:24:49.620Z,100.00
2019-01-11T23:27:20.196Z,100.00
2019-01-11T23:29:50.698Z,100.00
2019-01-11T23:32:21.240Z,100.00
2019-01-11T23:34:51.825Z,100.00
2019-01-11T23:37:22.333Z,100.00
2019-01-11T23:39:52.851Z,100.00
2019-01-11T23:42:23.346Z,100.00
2019-01-11T23:44:53.915Z,100.00
2019-01-11T23:47:24.445Z,100.00
2019-01-11T23:49:54.966Z,100.00
2019-01-11T23:52:25.495Z,100.00
2019-01-11T23:54:56.045Z,100.00
2019-01-11T23:57:26.596Z,100.00
2019-01-11T23:59:57.128Z,100.00
